createdAt,value
2022-07-26T00:00:22.538Z,1.00
2022-07-26T00:02:50.801Z,8.00
2022-07-26T00:05:19.058Z,1.00
2022-07-26T00:07:47.312Z,1.00
2022-07-26T00:10:16.452Z,1.00
2022-07-26T00:12:45.884Z,1.00
2022-07-26T00:15:13.976Z,1.00
2022-07-26T00:17:42.159Z,1.00
2022-07-26T00:20:10.950Z,1.00
2022-07-26T00:22:39.471Z,1.00
2022-07-26T00:25:09.903Z,1.00
2022-07-26T00:27:38.178Z,1.00
2022-07-26T00:30:11.110Z,1.00
2022-07-26T00:32:39.748Z,1.00
2022-07-26T00:35:08.299Z,1.00
2022-07-26T00:37:36.373Z,1.00
2022-07-26T00:40:04.925Z,1.00
2022-07-26T00:42:33.178Z,1.00
2022-07-26T00:45:01.956Z,1.00
2022-07-26T00:47:31.374Z,1.00
2022-07-26T00:49:59.534Z,1.00
2022-07-26T00:52:27.740Z,1.00
2022-07-26T00:54:56.263Z,1.00
2022-07-26T00:57:25.173Z,1.00
2022-07-26T00:59:53.482Z,1.00
2022-07-26T01:02:22.239Z,1.00
2022-07-26T01:04:51.785Z,1.00
2022-07-26T01:07:20.205Z,1.00
2022-07-26T01:09:48.295Z,1.00
2022-07-26T01:12:16.553Z,1.00
2022-07-26T01:14:45.295Z,1.00
2022-07-26T01:17:13.991Z,1.00
2022-07-26T01:19:42.592Z,1.00
2022-07-26T01:22:14.610Z,44.30
2022-07-26T01:24:43.683Z,65.40
2022-07-26T01:27:11.734Z,97.10
2022-07-26T01:29:40.024Z,99.90
2022-07-26T01:32:09.466Z,90.20
2022-07-26T01:34:37.532Z,99.30
2022-07-26T01:37:06.256Z,93.40
2022-07-26T01:39:35.855Z,94.90
2022-07-26T01:42:04.065Z,88.90
2022-07-26T01:44:32.240Z,98.60
2022-07-26T01:47:00.529Z,99.90
2022-07-26T01:49:28.571Z,99.90
2022-07-26T01:51:56.748Z,99.90
2022-07-26T01:54:24.837Z,99.90
2022-07-26T01:56:54.254Z,99.90
2022-07-26T01:59:22.446Z,99.90
2022-07-26T02:01:50.567Z,99.90
2022-07-26T02:04:32.632Z,99.90
2022-07-26T02:07:00.924Z,99.90
2022-07-26T02:09:38.042Z,99.90
2022-07-26T02:12:10.041Z,99.90
2022-07-26T02:14:38.096Z,99.90
2022-07-26T02:17:06.145Z,99.90
2022-07-26T02:19:34.467Z,99.90
2022-07-26T02:22:02.758Z,99.90
2022-07-26T02:24:30.990Z,99.90
2022-07-26T02:27:00.316Z,99.90
2022-07-26T02:29:29.926Z,99.90
2022-07-26T02:31:58.760Z,99.90
2022-07-26T02:34:28.971Z,99.90
2022-07-26T02:36:59.390Z,99.90
2022-07-26T02:39:28.639Z,99.90
2022-07-26T02:41:57.855Z,99.90
2022-07-26T02:44:26.420Z,99.90
2022-07-26T02:46:56.404Z,99.90
2022-07-26T02:49:24.502Z,99.90
2022-07-26T02:51:52.831Z,99.90
2022-07-26T02:54:21.157Z,99.90
2022-07-26T02:56:49.155Z,99.90
2022-07-26T02:59:17.156Z,99.90
2022-07-26T03:01:45.441Z,99.90
2022-07-26T03:04:14.877Z,99.90
2022-07-26T03:06:42.877Z,99.90
2022-07-26T03:09:11.154Z,99.90
2022-07-26T03:11:39.251Z,99.90
2022-07-26T03:14:09.153Z,99.90
2022-07-26T03:16:37.696Z,99.90
2022-07-26T03:19:05.907Z,99.90
2022-07-26T03:21:35.307Z,99.90
2022-07-26T03:24:03.570Z,99.90
2022-07-26T03:26:31.612Z,99.90
2022-07-26T03:28:59.634Z,99.90
2022-07-26T03:31:27.836Z,99.90
2022-07-26T03:33:59.892Z,99.90
2022-07-26T03:36:31.215Z,99.90
2022-07-26T03:39:00.612Z,99.90
2022-07-26T03:41:31.587Z,99.90
2022-07-26T03:43:59.750Z,99.90
2022-07-26T03:46:27.932Z,99.90
2022-07-26T03:48:56.296Z,99.90
2022-07-26T03:51:24.843Z,99.90
2022-07-26T03:53:52.883Z,99.90
2022-07-26T03:56:31.911Z,99.90
2022-07-26T03:59:01.730Z,99.90
2022-07-26T04:01:30.907Z,99.90
2022-07-26T04:03:59.260Z,99.90
2022-07-26T04:06:27.384Z,99.90
2022-07-26T04:08:55.695Z,99.90
2022-07-26T04:11:26.521Z,99.90
2022-07-26T04:13:56.401Z,99.90
2022-07-26T04:16:24.832Z,99.90
2022-07-26T04:18:52.918Z,99.90
2022-07-26T04:21:21.185Z,99.90
2022-07-26T04:23:51.603Z,99.90
2022-07-26T04:26:20.554Z,99.90
2022-07-26T04:28:50.180Z,99.90
2022-07-26T04:31:18.472Z,99.90
2022-07-26T04:33:46.609Z,99.90
2022-07-26T04:36:14.732Z,99.90
2022-07-26T04:38:42.785Z,99.90
2022-07-26T04:41:11.038Z,99.90
2022-07-26T04:43:39.181Z,99.90
2022-07-26T04:46:08.755Z,99.90
2022-07-26T04:48:39.074Z,99.90
2022-07-26T04:51:07.483Z,99.90
2022-07-26T04:53:35.592Z,99.90
2022-07-26T04:56:03.682Z,99.90
2022-07-26T04:58:31.885Z,99.90
2022-07-26T05:01:16.247Z,99.90
2022-07-26T05:03:45.904Z,99.90
2022-07-26T05:06:13.952Z,99.90
2022-07-26T05:08:43.276Z,99.90
2022-07-26T05:11:11.539Z,99.90
2022-07-26T05:13:39.550Z,99.90
2022-07-26T05:16:11.884Z,99.90
2022-07-26T05:18:45.854Z,99.90
2022-07-26T05:21:19.588Z,99.90
2022-07-26T05:23:47.930Z,99.90
2022-07-26T05:26:16.282Z,99.90
2022-07-26T05:28:44.365Z,99.90
2022-07-26T05:31:12.768Z,99.90
2022-07-26T05:33:40.927Z,99.90
2022-07-26T05:36:09.506Z,99.90
2022-07-26T05:38:39.159Z,99.90
2022-07-26T05:41:07.794Z,99.90
2022-07-26T05:43:40.659Z,99.90
2022-07-26T05:46:11.735Z,99.90
2022-07-26T05:48:40.165Z,99.90
2022-07-26T05:51:08.549Z,99.90
2022-07-26T05:53:38.587Z,99.90
2022-07-26T05:56:07.669Z,99.90
2022-07-26T05:58:35.663Z,99.90
2022-07-26T06:01:03.678Z,99.90
2022-07-26T06:03:32.403Z,99.90
2022-07-26T06:06:00.765Z,99.90
2022-07-26T06:08:29.190Z,99.90
2022-07-26T06:10:58.753Z,99.90
2022-07-26T06:13:26.903Z,99.90
2022-07-26T06:15:54.971Z,99.90
2022-07-26T06:18:23.520Z,99.90
2022-07-26T06:20:53.087Z,99.90
2022-07-26T06:23:33.958Z,99.90
2022-07-26T06:26:05.188Z,99.90
2022-07-26T06:28:33.234Z,99.90
2022-07-26T06:31:01.465Z,99.90
2022-07-26T06:33:29.761Z,99.90
2022-07-26T06:35:57.777Z,99.90
2022-07-26T06:38:25.908Z,85.80
2022-07-26T06:40:54.359Z,99.90
2022-07-26T06:43:23.765Z,99.90
2022-07-26T06:45:52.049Z,99.90
2022-07-26T06:48:20.301Z,49.30
2022-07-26T06:50:48.411Z,42.30
2022-07-26T06:53:16.476Z,12.50
2022-07-26T06:55:45.255Z,1.00
2022-07-26T06:58:14.173Z,5.10
2022-07-26T07:00:44.149Z,1.00
2022-07-26T07:03:12.271Z,1.00
2022-07-26T07:05:40.502Z,1.00
2022-07-26T07:08:08.543Z,1.00
2022-07-26T07:10:38.524Z,1.00
2022-07-26T07:13:06.903Z,1.00
2022-07-26T07:15:35.085Z,1.00
2022-07-26T07:18:04.671Z,1.00
2022-07-26T07:20:34.374Z,1.00
2022-07-26T07:23:02.391Z,1.00
2022-07-26T07:25:31.173Z,1.00
2022-07-26T07:28:00.141Z,1.00
2022-07-26T07:30:28.720Z,1.00
2022-07-26T07:32:57.016Z,1.00
2022-07-26T07:35:31.912Z,1.00
2022-07-26T07:38:02.010Z,1.00
2022-07-26T07:40:30.384Z,1.00
2022-07-26T07:42:58.860Z,1.00
2022-07-26T07:45:27.136Z,99.90
2022-07-26T07:47:55.484Z,1.00
2022-07-26T07:50:28.274Z,99.90
2022-07-26T07:52:59.106Z,1.00
2022-07-26T07:55:46.081Z,99.90
2022-07-26T07:58:15.716Z,99.90
2022-07-26T08:00:45.647Z,1.00
2022-07-26T08:03:18.115Z,1.00
2022-07-26T08:05:47.110Z,99.90
2022-07-26T08:08:22.265Z,99.90
2022-07-26T08:10:52.366Z,99.90
2022-07-26T08:13:21.768Z,99.90
2022-07-26T08:15:50.481Z,1.00
2022-07-26T08:18:19.462Z,1.00
2022-07-26T08:20:51.228Z,1.00
2022-07-26T08:23:22.263Z,99.90
2022-07-26T08:25:57.137Z,99.90
2022-07-26T08:31:15.251Z,99.90
2022-07-26T08:33:46.447Z,99.90
2022-07-26T08:36:15.677Z,99.90
2022-07-26T08:38:47.627Z,99.90
2022-07-26T08:41:16.987Z,99.90
2022-07-26T08:43:52.662Z,99.90
2022-07-26T08:46:26.394Z,99.90
2022-07-26T08:48:55.526Z,99.90
2022-07-26T08:51:25.591Z,99.90
2022-07-26T08:54:04.248Z,99.90
2022-07-26T08:56:35.228Z,99.90
2022-07-26T08:59:07.860Z,99.90
2022-07-26T09:01:36.543Z,99.90
2022-07-26T09:04:30.983Z,99.90
2022-07-26T09:07:02.480Z,99.90
2022-07-26T09:09:32.569Z,99.90
2022-07-26T09:12:13.801Z,25.30
2022-07-26T09:14:41.800Z,1.00
2022-07-26T09:17:10.122Z,1.00
2022-07-26T09:19:38.219Z,32.90
2022-07-26T09:22:11.603Z,1.00
2022-07-26T09:24:43.163Z,1.00
2022-07-26T09:27:12.817Z,1.00
2022-07-26T09:29:45.894Z,1.00
2022-07-26T09:32:17.989Z,1.00
2022-07-26T09:34:52.583Z,1.00
2022-07-26T09:37:34.860Z,1.00
2022-07-26T09:40:07.745Z,99.90
2022-07-26T09:42:36.111Z,99.90
2022-07-26T09:45:15.806Z,1.00
2022-07-26T09:47:43.982Z,1.00
2022-07-26T09:50:15.090Z,99.90
2022-07-26T09:52:59.459Z,99.90
2022-07-26T09:55:36.377Z,99.90
2022-07-26T09:58:06.579Z,1.00
2022-07-26T10:00:35.408Z,40.10
2022-07-26T10:03:03.475Z,99.90
2022-07-26T10:05:33.166Z,99.90
2022-07-26T10:08:01.917Z,99.90
2022-07-26T10:10:37.119Z,99.90
2022-07-26T10:13:06.282Z,99.90
2022-07-26T10:15:39.125Z,99.90
2022-07-26T10:18:09.351Z,99.90
2022-07-26T10:20:48.392Z,99.90
2022-07-26T10:23:39.946Z,99.90
2022-07-26T10:26:12.235Z,99.90
2022-07-26T10:28:41.688Z,99.90
2022-07-26T10:31:30.588Z,99.90
2022-07-26T10:34:02.033Z,99.90
2022-07-26T10:36:36.980Z,99.90
2022-07-26T10:39:16.255Z,99.90
2022-07-26T10:41:48.253Z,99.90
2022-07-26T10:44:18.930Z,1.00
2022-07-26T10:47:03.022Z,1.00
2022-07-26T10:49:36.318Z,64.90
2022-07-26T10:52:10.164Z,1.00
2022-07-26T10:55:14.859Z,1.00
2022-07-26T10:57:49.386Z,1.00
2022-07-26T11:00:23.833Z,11.90
2022-07-26T11:02:57.116Z,17.90
2022-07-26T11:05:31.065Z,45.50
2022-07-26T11:08:08.447Z,99.90
2022-07-26T11:10:38.830Z,99.90
2022-07-26T11:13:11.491Z,99.90
2022-07-26T11:15:42.097Z,99.90
2022-07-26T11:18:12.702Z,99.90
2022-07-26T11:20:42.185Z,99.90
2022-07-26T11:23:28.559Z,99.90
2022-07-26T11:26:18.064Z,99.90
2022-07-26T11:28:49.918Z,99.90
2022-07-26T11:31:20.189Z,99.90
2022-07-26T11:33:51.127Z,99.90
2022-07-26T11:36:20.494Z,99.90
2022-07-26T11:38:51.530Z,99.90
2022-07-26T11:41:34.390Z,99.90
2022-07-26T11:44:05.450Z,99.90
2022-07-26T11:46:36.677Z,99.90
2022-07-26T11:49:07.226Z,99.90
2022-07-26T11:51:35.461Z,16.70
2022-07-26T11:54:04.973Z,13.90
2022-07-26T11:56:33.306Z,34.10
2022-07-26T11:59:02.256Z,1.00
2022-07-26T12:01:31.950Z,1.00
2022-07-26T12:04:00.018Z,1.00
2022-07-26T12:06:29.087Z,1.00
2022-07-26T12:08:59.118Z,1.00
2022-07-26T12:11:39.615Z,1.00
2022-07-26T12:14:07.870Z,1.00
2022-07-26T12:16:43.189Z,1.00
2022-07-26T12:19:24.630Z,1.00
2022-07-26T12:21:54.401Z,1.00
2022-07-26T12:24:42.150Z,1.00
2022-07-26T12:27:13.720Z,1.00
2022-07-26T12:29:44.560Z,1.00
2022-07-26T12:32:16.044Z,1.00
2022-07-26T12:34:57.831Z,1.00
2022-07-26T12:37:39.431Z,1.00
2022-07-26T12:40:11.616Z,1.00
2022-07-26T12:42:41.098Z,1.00
2022-07-26T12:45:12.188Z,1.00
2022-07-26T12:47:43.208Z,1.00
2022-07-26T12:50:13.519Z,97.50
2022-07-26T12:52:42.158Z,99.90
2022-07-26T12:55:13.962Z,99.90
2022-07-26T12:57:47.182Z,99.90
2022-07-26T13:00:17.415Z,99.90
2022-07-26T13:02:47.698Z,99.90
2022-07-26T13:05:16.233Z,99.90
2022-07-26T13:07:44.632Z,99.90
2022-07-26T13:10:32.661Z,99.90
2022-07-26T13:13:01.583Z,99.90
2022-07-26T13:15:36.138Z,99.90
2022-07-26T13:18:08.313Z,99.90
2022-07-26T13:20:38.580Z,99.90
2022-07-26T13:23:09.737Z,99.90
2022-07-26T13:25:40.712Z,99.90
2022-07-26T13:28:09.550Z,99.90
2022-07-26T13:30:38.855Z,99.90
2022-07-26T13:33:08.463Z,99.90
2022-07-26T13:35:38.828Z,99.90
2022-07-26T13:38:07.487Z,99.90
2022-07-26T13:40:36.086Z,99.90
2022-07-26T13:43:04.487Z,99.90
2022-07-26T13:45:32.618Z,99.90
2022-07-26T13:48:00.693Z,99.90
2022-07-26T13:50:30.103Z,99.90
2022-07-26T13:52:58.284Z,99.90
2022-07-26T13:55:26.591Z,99.90
2022-07-26T13:57:56.209Z,99.90
2022-07-26T14:00:26.262Z,99.90
2022-07-26T14:02:54.573Z,99.90
2022-07-26T14:05:22.886Z,99.90
2022-07-26T14:07:52.958Z,99.90
2022-07-26T14:10:21.605Z,99.90
2022-07-26T14:12:50.013Z,99.90
2022-07-26T14:15:22.739Z,99.90
2022-07-26T14:17:52.029Z,99.90
2022-07-26T14:20:21.026Z,99.90
2022-07-26T14:22:49.251Z,99.90
2022-07-26T14:25:18.694Z,99.90
2022-07-26T14:27:47.133Z,99.90
2022-07-26T14:30:15.703Z,99.90
2022-07-26T14:32:43.814Z,99.90
2022-07-26T14:35:13.594Z,95.80
2022-07-26T14:37:45.081Z,99.90
2022-07-26T14:40:16.949Z,51.10
2022-07-26T14:42:47.283Z,51.30
2022-07-26T14:45:16.512Z,64.40
2022-07-26T14:47:45.011Z,1.00
2022-07-26T14:50:14.386Z,1.00
2022-07-26T14:52:44.597Z,1.00
2022-07-26T14:55:13.715Z,1.00
2022-07-26T14:57:42.799Z,1.00
2022-07-26T15:00:14.570Z,1.00
2022-07-26T15:02:44.560Z,1.00
2022-07-26T15:05:13.801Z,1.00
2022-07-26T15:07:43.167Z,1.00
2022-07-26T15:10:13.711Z,1.00
2022-07-26T15:12:43.029Z,1.00
2022-07-26T15:15:13.267Z,1.00
2022-07-26T15:17:41.321Z,1.00
2022-07-26T15:20:10.103Z,99.90
2022-07-26T15:22:38.242Z,1.00
2022-07-26T15:25:07.092Z,1.00
2022-07-26T15:27:35.365Z,99.90
2022-07-26T15:30:06.940Z,99.90
2022-07-26T15:32:39.744Z,1.00
2022-07-26T15:35:14.086Z,99.90
2022-07-26T15:37:43.742Z,1.00
2022-07-26T15:40:13.332Z,99.90
2022-07-26T15:42:44.127Z,1.00
2022-07-26T15:45:13.222Z,99.90
2022-07-26T15:47:54.767Z,99.90
2022-07-26T15:50:24.220Z,99.90
2022-07-26T15:52:52.801Z,75.50
2022-07-26T15:55:21.289Z,99.90
2022-07-26T15:57:49.428Z,99.90
2022-07-26T16:00:18.320Z,1.00
2022-07-26T16:02:48.055Z,83.40
2022-07-26T16:05:16.174Z,19.60
2022-07-26T16:07:45.443Z,99.90
2022-07-26T16:10:14.916Z,99.90
2022-07-26T16:12:43.516Z,1.00
2022-07-26T16:15:13.071Z,99.90
2022-07-26T16:17:41.542Z,1.00
2022-07-26T16:20:11.400Z,1.00
2022-07-26T16:22:42.008Z,90.80
2022-07-26T16:25:13.540Z,9.60
2022-07-26T16:27:42.747Z,99.90
2022-07-26T16:30:12.153Z,99.90
2022-07-26T16:32:40.256Z,99.90
2022-07-26T16:35:11.421Z,1.00
2022-07-26T16:37:39.895Z,1.00
2022-07-26T16:40:09.394Z,1.00
2022-07-26T16:42:37.569Z,1.00
2022-07-26T16:45:06.442Z,1.00
2022-07-26T16:47:34.512Z,99.90
2022-07-26T16:50:02.726Z,1.00
2022-07-26T16:52:32.195Z,99.90
2022-07-26T16:55:00.321Z,1.00
2022-07-26T16:57:28.520Z,99.90
2022-07-26T16:59:56.703Z,99.90
2022-07-26T17:02:24.871Z,99.90
2022-07-26T17:04:56.079Z,99.90
2022-07-26T17:07:25.771Z,1.00
2022-07-26T17:09:55.873Z,99.90
2022-07-26T17:12:25.125Z,99.90
2022-07-26T17:14:53.464Z,99.90
2022-07-26T17:17:21.840Z,99.90
2022-07-26T17:19:49.957Z,99.90
2022-07-26T17:22:18.869Z,99.90
2022-07-26T17:24:47.368Z,99.90
2022-07-26T17:27:17.352Z,99.90
2022-07-26T17:29:45.809Z,99.90
2022-07-26T17:32:14.010Z,99.90
2022-07-26T17:34:42.746Z,1.00
2022-07-26T17:37:12.382Z,1.00
2022-07-26T17:39:51.538Z,1.00
2022-07-26T17:42:22.583Z,1.00
2022-07-26T17:44:50.725Z,1.00
2022-07-26T17:47:28.768Z,1.00
2022-07-26T17:50:13.972Z,1.00
2022-07-26T17:52:48.182Z,1.00
2022-07-26T17:55:16.363Z,1.00
2022-07-26T17:57:46.050Z,99.90
2022-07-26T18:00:15.271Z,12.40
2022-07-26T18:02:43.516Z,1.00
2022-07-26T18:05:12.170Z,23.10
2022-07-26T18:07:40.750Z,78.20
2022-07-26T18:10:10.070Z,99.90
2022-07-26T18:12:38.315Z,99.90
2022-07-26T18:15:09.477Z,99.90
2022-07-26T18:17:38.003Z,91.60
2022-07-26T18:20:07.199Z,82.40
2022-07-26T18:22:35.476Z,99.90
2022-07-26T18:25:03.971Z,99.30
2022-07-26T18:27:32.121Z,99.90
2022-07-26T18:30:00.786Z,75.70
2022-07-26T18:32:30.513Z,99.90
2022-07-26T18:34:58.827Z,99.90
2022-07-26T18:37:26.953Z,99.90
2022-07-26T18:39:57.741Z,1.00
2022-07-26T18:42:26.349Z,99.90
2022-07-26T18:44:54.503Z,99.90
2022-07-26T18:47:22.625Z,1.00
2022-07-26T18:49:52.130Z,99.90
2022-07-26T18:52:31.510Z,1.00
2022-07-26T18:55:01.756Z,99.90
2022-07-26T18:57:29.805Z,1.00
2022-07-26T18:59:57.824Z,1.00
2022-07-26T19:02:26.191Z,99.90
2022-07-26T19:04:55.621Z,1.00
2022-07-26T19:07:23.682Z,1.00
2022-07-26T19:09:57.837Z,1.00
2022-07-26T19:12:27.107Z,1.00
2022-07-26T19:14:55.968Z,1.00
2022-07-26T19:17:24.116Z,1.00
2022-07-26T19:19:52.187Z,1.00
2022-07-26T19:22:22.465Z,1.00
2022-07-26T19:24:50.518Z,1.00
2022-07-26T19:27:18.869Z,1.00
2022-07-26T19:29:47.244Z,1.00
2022-07-26T19:32:15.528Z,42.50
2022-07-26T19:34:43.671Z,85.50
2022-07-26T19:37:12.278Z,1.00
2022-07-26T19:39:42.010Z,99.90
2022-07-26T19:42:10.089Z,99.90
2022-07-26T19:44:38.171Z,99.90
2022-07-26T19:47:06.495Z,99.90
2022-07-26T19:49:34.521Z,99.90
2022-07-26T19:52:02.633Z,99.90
2022-07-26T19:54:30.960Z,1.00
2022-07-26T19:57:00.584Z,99.90
2022-07-26T19:59:28.787Z,99.90
2022-07-26T20:01:58.545Z,1.00
2022-07-26T20:04:26.857Z,1.00
2022-07-26T20:06:56.558Z,1.00
2022-07-26T20:09:26.913Z,1.00
2022-07-26T20:11:54.950Z,1.00
2022-07-26T20:14:24.614Z,1.00
2022-07-26T20:16:56.323Z,1.00
2022-07-26T20:19:28.215Z,99.90
2022-07-26T20:21:56.719Z,1.00
2022-07-26T20:24:24.730Z,99.90
2022-07-26T20:26:52.819Z,1.00
2022-07-26T20:29:21.045Z,1.00
2022-07-26T20:31:50.418Z,1.00
2022-07-26T20:34:18.613Z,99.90
2022-07-26T20:36:46.878Z,1.00
2022-07-26T20:39:15.563Z,1.00
2022-07-26T20:41:43.716Z,1.00
2022-07-26T20:44:14.246Z,1.00
2022-07-26T20:46:42.673Z,99.90
2022-07-26T20:49:12.798Z,1.00
2022-07-26T20:51:41.159Z,44.10
2022-07-26T20:54:10.280Z,99.90
2022-07-26T20:56:39.029Z,99.90
2022-07-26T20:59:07.451Z,99.90
2022-07-26T21:01:36.156Z,99.90
2022-07-26T21:04:04.914Z,1.00
2022-07-26T21:06:34.695Z,99.90
2022-07-26T21:09:09.053Z,99.90
2022-07-26T21:11:38.900Z,99.90
2022-07-26T21:14:07.404Z,99.90
2022-07-26T21:16:35.636Z,1.00
2022-07-26T21:19:05.362Z,99.90
2022-07-26T21:21:37.044Z,1.00
2022-07-26T21:24:06.500Z,1.00
2022-07-26T21:26:35.045Z,99.90
2022-07-26T21:29:03.119Z,99.90
2022-07-26T21:31:31.524Z,1.00
2022-07-26T21:33:59.970Z,1.00
2022-07-26T21:36:28.078Z,1.00
2022-07-26T21:38:57.558Z,1.00
2022-07-26T21:41:25.889Z,1.00
2022-07-26T21:43:53.904Z,1.00
2022-07-26T21:46:22.187Z,1.00
2022-07-26T21:48:50.567Z,1.00
2022-07-26T21:51:19.094Z,1.00
2022-07-26T21:53:47.206Z,99.90
2022-07-26T21:56:16.919Z,1.00
2022-07-26T21:58:45.244Z,99.90
2022-07-26T22:01:15.565Z,1.00
2022-07-26T22:03:44.044Z,99.90
2022-07-26T22:06:12.998Z,99.90
2022-07-26T22:08:41.187Z,1.00
2022-07-26T22:11:09.289Z,99.90
2022-07-26T22:13:39.364Z,99.90
2022-07-26T22:16:08.238Z,1.00
2022-07-26T22:18:36.397Z,1.00
2022-07-26T22:21:04.707Z,99.90
2022-07-26T22:23:32.828Z,1.00
2022-07-26T22:26:03.185Z,1.00
2022-07-26T22:28:31.984Z,99.90
2022-07-26T22:31:02.475Z,1.00
2022-07-26T22:33:30.497Z,1.00
2022-07-26T22:35:58.730Z,1.00
2022-07-26T22:38:26.832Z,1.00
2022-07-26T22:40:54.876Z,99.90
2022-07-26T22:43:22.968Z,1.00
2022-07-26T22:45:51.501Z,99.90
2022-07-26T22:48:21.044Z,99.90
2022-07-26T22:50:49.043Z,99.90
2022-07-26T22:53:17.426Z,99.90
2022-07-26T22:55:45.522Z,1.00
2022-07-26T22:58:13.594Z,1.00
2022-07-26T23:00:42.166Z,1.00
2022-07-26T23:03:20.115Z,1.00
2022-07-26T23:05:52.327Z,1.00
2022-07-26T23:11:08.913Z,1.00
2022-07-26T23:13:36.991Z,1.00
2022-07-26T23:16:05.524Z,1.00
2022-07-26T23:18:35.098Z,1.00
2022-07-26T23:21:04.727Z,1.00
2022-07-26T23:23:33.104Z,1.00
2022-07-26T23:26:02.122Z,1.00
2022-07-26T23:28:37.117Z,1.00
2022-07-26T23:31:08.069Z,1.00
2022-07-26T23:33:51.585Z,1.00
2022-07-26T23:36:23.961Z,1.00
2022-07-26T23:38:52.241Z,1.00
2022-07-26T23:41:20.591Z,1.00
2022-07-26T23:43:48.825Z,1.00
2022-07-26T23:46:17.129Z,1.00
2022-07-26T23:48:45.759Z,1.00
2022-07-26T23:51:14.356Z,1.00
2022-07-26T23:53:44.058Z,1.00
2022-07-26T23:56:12.194Z,1.00
2022-07-26T23:58:40.391Z,1.00
